Freemans Mills, North Carolina
Current Conditions -  °F | °C
As of 9:54 AM on Tuesday 21 Oct 2014 (Local Time) from KINT Reporting Station
Clear Clear  
Wind Chill: 61°   Ceiling: Unl
Heat Index: 61°   Visibility: 10mi
Dew Point: 48°   Wind: 7mph
Humidity: 62%   Direction: 300°WNW
Pressure: 29.95"   Gusts: NA
Location:  35.9808°N, 80.1272°W
Report Text: KINT 211354Z 30006KT 10SM CLR 16/09 A2995 RMK AO2 SLP137 T01610089
Loading
Personal Weather Stations






























Interactive Weather Map
Tropical Storm Tracking
New forecast layout! Learn more

10-Day Weather Forecast

Advertisements
Track Severe Weather on mobile